RYR99ZG EGSS-LIPQ
Flight info
| Callsign | RYR99ZG |
|---|---|
| Flight time | 1h 51m |
| Altitude | 39000 |
| Route | CLN M84 KONAN UL607 MATUG DCT AMASI DCT BOMBI DCT DETEV DCT DINKU/N0413F310 L603 OLETU Z106 BAVAX M867 RADIZ DCT URAVA P125 LUPIN |
| Aircraft | B38M/M-SADE3FGIJ1LRWYZ/SB1 |
Departure
| Time | 2026-04-23 07:48 |
|---|---|
| Airport | London Stansted Airport (EGSS) |
Arrival
| Time | 2026-04-23 09:40 |
|---|---|
| Airport | Trieste Airport (LIPQ) |
| Time | Latitude | Longitude | Altitude | Speed | Heading |
|---|---|---|---|---|---|
| 2026-04-23 07:24 | 51.89197 | 0.25709 | 355 ft | 0 kts | 222° |
| 2026-04-23 07:37 | 51.89198 | 0.25712 | 355 ft | 3 kts | 222° |
| 2026-04-23 07:37 | 51.89214 | 0.25736 | 359 ft | 3 kts | 223° |
| 2026-04-23 07:37 | 51.89225 | 0.25764 | 362 ft | 4 kts | 286° |
| 2026-04-23 07:37 | 51.89211 | 0.25794 | 364 ft | 4 kts | 313° |
| 2026-04-23 07:38 | 51.89205 | 0.25804 | 355 ft | 0 kts | 313° |
| 2026-04-23 07:40 | 51.89212 | 0.25793 | 358 ft | 3 kts | 313° |
| 2026-04-23 07:40 | 51.89233 | 0.25756 | 359 ft | 6 kts | 313° |
| 2026-04-23 07:41 | 51.89267 | 0.25697 | 355 ft | 9 kts | 313° |
| 2026-04-23 07:41 | 51.89314 | 0.25616 | 355 ft | 11 kts | 313° |
| 2026-04-23 07:41 | 51.89370 | 0.25546 | 360 ft | 10 kts | 330° |
| 2026-04-23 07:41 | 51.89419 | 0.25463 | 359 ft | 11 kts | 283° |
| 2026-04-23 07:42 | 51.89381 | 0.25357 | 363 ft | 13 kts | 221° |
| 2026-04-23 07:42 | 51.89310 | 0.25252 | 362 ft | 15 kts | 222° |
| 2026-04-23 07:42 | 51.89240 | 0.25112 | 361 ft | 17 kts | 239° |
| 2026-04-23 07:42 | 51.89171 | 0.24971 | 357 ft | 17 kts | 223° |
| 2026-04-23 07:43 | 51.89080 | 0.24836 | 355 ft | 19 kts | 223° |
| 2026-04-23 07:43 | 51.88977 | 0.24682 | 355 ft | 21 kts | 223° |
| 2026-04-23 07:43 | 51.88862 | 0.24509 | 362 ft | 24 kts | 223° |
| 2026-04-23 07:43 | 51.88726 | 0.24306 | 352 ft | 29 kts | 223° |
| 2026-04-23 07:44 | 51.88582 | 0.24090 | 349 ft | 27 kts | 223° |
| 2026-04-23 07:44 | 51.88448 | 0.23886 | 345 ft | 27 kts | 223° |
| 2026-04-23 07:44 | 51.88311 | 0.23682 | 354 ft | 24 kts | 223° |
| 2026-04-23 07:44 | 51.88181 | 0.23488 | 348 ft | 27 kts | 223° |
| 2026-04-23 07:45 | 51.88084 | 0.23344 | 344 ft | 28 kts | 223° |
| 2026-04-23 07:45 | 51.87935 | 0.23119 | 339 ft | 30 kts | 223° |
| 2026-04-23 07:45 | 51.87797 | 0.22912 | 346 ft | 28 kts | 223° |
| 2026-04-23 07:45 | 51.87652 | 0.22694 | 338 ft | 27 kts | 223° |
| 2026-04-23 07:46 | 51.87527 | 0.22508 | 332 ft | 24 kts | 222° |
| 2026-04-23 07:46 | 51.87422 | 0.22349 | 331 ft | 15 kts | 223° |
| 2026-04-23 07:46 | 51.87402 | 0.22217 | 328 ft | 14 kts | 295° |
| 2026-04-23 07:46 | 51.87476 | 0.22075 | 323 ft | 15 kts | 314° |
| 2026-04-23 07:47 | 51.87537 | 0.22037 | 323 ft | 8 kts | 31° |
| 2026-04-23 07:47 | 51.87561 | 0.22072 | 325 ft | 0 kts | 43° |
| 2026-04-23 07:47 | 51.87635 | 0.22185 | 328 ft | 49 kts | 43° |
| 2026-04-23 07:47 | 51.88088 | 0.22862 | 336 ft | 126 kts | 43° |
| 2026-04-23 07:48 | 51.88836 | 0.23992 | 662 ft | 160 kts | 45° |
| 2026-04-23 07:48 | 51.89640 | 0.25250 | 1604 ft | 165 kts | 46° |
| 2026-04-23 07:48 | 51.90492 | 0.26564 | 2458 ft | 170 kts | 46° |
| 2026-04-23 07:48 | 51.91337 | 0.27935 | 3224 ft | 174 kts | 60° |
| 2026-04-23 07:49 | 51.91663 | 0.29750 | 4056 ft | 169 kts | 91° |
| 2026-04-23 07:49 | 51.91400 | 0.31623 | 4787 ft | 174 kts | 112° |
| 2026-04-23 07:49 | 51.90934 | 0.33452 | 5541 ft | 178 kts | 114° |
| 2026-04-23 07:49 | 51.90420 | 0.35369 | 6076 ft | 195 kts | 114° |
| 2026-04-23 07:50 | 51.89834 | 0.37512 | 6498 ft | 220 kts | 114° |
| 2026-04-23 07:50 | 51.89173 | 0.39873 | 7052 ft | 241 kts | 114° |
| 2026-04-23 07:50 | 51.88446 | 0.42421 | 7651 ft | 257 kts | 115° |
| 2026-04-23 07:50 | 51.87670 | 0.45106 | 8404 ft | 267 kts | 115° |
| 2026-04-23 07:51 | 51.86876 | 0.47837 | 9354 ft | 270 kts | 115° |
| 2026-04-23 07:51 | 51.86063 | 0.50614 | 10277 ft | 275 kts | 114° |
| 2026-04-23 07:51 | 51.85235 | 0.53433 | 11067 ft | 281 kts | 114° |
| 2026-04-23 07:51 | 51.84394 | 0.56305 | 11946 ft | 284 kts | 114° |
| 2026-04-23 07:52 | 51.83537 | 0.59235 | 12629 ft | 295 kts | 112° |
| 2026-04-23 07:52 | 51.82943 | 0.62491 | 13158 ft | 309 kts | 105° |
| 2026-04-23 07:52 | 51.81938 | 0.65626 | 13758 ft | 323 kts | 129° |
| 2026-04-23 07:52 | 51.80272 | 0.68115 | 14525 ft | 330 kts | 135° |
| 2026-04-23 07:53 | 51.78623 | 0.70731 | 15273 ft | 333 kts | 131° |
| 2026-04-23 07:53 | 51.77031 | 0.73481 | 16018 ft | 337 kts | 129° |
| 2026-04-23 07:53 | 51.75465 | 0.76331 | 16752 ft | 341 kts | 128° |
| 2026-04-23 07:53 | 51.73907 | 0.79248 | 17474 ft | 346 kts | 128° |
| 2026-04-23 07:54 | 51.72342 | 0.82218 | 18189 ft | 350 kts | 127° |
| 2026-04-23 07:54 | 51.70767 | 0.85234 | 18869 ft | 354 kts | 127° |
| 2026-04-23 07:54 | 51.69177 | 0.88289 | 19468 ft | 358 kts | 127° |
| 2026-04-23 07:54 | 51.67574 | 0.91376 | 20062 ft | 361 kts | 127° |
| 2026-04-23 07:55 | 51.65953 | 0.94496 | 20645 ft | 365 kts | 127° |
| 2026-04-23 07:55 | 51.64318 | 0.97640 | 21237 ft | 369 kts | 126° |
| 2026-04-23 07:55 | 51.62663 | 1.00820 | 21812 ft | 372 kts | 126° |
| 2026-04-23 07:55 | 51.60989 | 1.04031 | 22390 ft | 376 kts | 126° |
| 2026-04-23 07:56 | 51.59303 | 1.07263 | 22970 ft | 379 kts | 127° |
| 2026-04-23 07:56 | 51.57595 | 1.10531 | 23551 ft | 383 kts | 127° |
| 2026-04-23 07:56 | 51.55898 | 1.13775 | 24104 ft | 386 kts | 127° |
| 2026-04-23 07:56 | 51.54159 | 1.17095 | 24546 ft | 391 kts | 127° |
| 2026-04-23 07:57 | 51.52403 | 1.20443 | 25045 ft | 393 kts | 127° |
| 2026-04-23 07:57 | 51.50635 | 1.23809 | 25524 ft | 396 kts | 127° |
| 2026-04-23 07:57 | 51.48855 | 1.27193 | 26001 ft | 399 kts | 127° |
| 2026-04-23 07:57 | 51.47063 | 1.30597 | 26471 ft | 401 kts | 127° |
| 2026-04-23 07:58 | 51.45256 | 1.34023 | 26935 ft | 404 kts | 127° |
| 2026-04-23 07:58 | 51.43453 | 1.37504 | 27397 ft | 406 kts | 124° |
| 2026-04-23 07:58 | 51.41741 | 1.41117 | 27829 ft | 409 kts | 124° |
| 2026-04-23 07:58 | 51.40005 | 1.44748 | 28295 ft | 411 kts | 125° |
| 2026-04-23 07:59 | 51.38231 | 1.48291 | 29037 ft | 405 kts | 127° |
| 2026-04-23 07:59 | 51.36491 | 1.51831 | 29545 ft | 406 kts | 125° |
| 2026-04-23 07:59 | 51.34783 | 1.55466 | 29881 ft | 410 kts | 125° |
| 2026-04-23 07:59 | 51.33055 | 1.59089 | 30349 ft | 412 kts | 126° |
| 2026-04-23 08:00 | 51.31295 | 1.62728 | 30642 ft | 416 kts | 126° |
| 2026-04-23 08:00 | 51.29503 | 1.66412 | 30858 ft | 421 kts | 126° |
| 2026-04-23 08:00 | 51.27708 | 1.70118 | 31212 ft | 423 kts | 126° |
| 2026-04-23 08:00 | 51.25896 | 1.73840 | 31521 ft | 426 kts | 126° |
| 2026-04-23 08:01 | 51.24068 | 1.77583 | 31842 ft | 428 kts | 126° |
| 2026-04-23 08:01 | 51.22231 | 1.81344 | 32124 ft | 432 kts | 126° |
| 2026-04-23 08:01 | 51.20376 | 1.85129 | 32444 ft | 434 kts | 126° |
| 2026-04-23 08:01 | 51.18515 | 1.88927 | 32731 ft | 437 kts | 126° |
| 2026-04-23 08:02 | 51.16638 | 1.92740 | 33132 ft | 436 kts | 127° |
| 2026-04-23 08:02 | 51.14795 | 1.96536 | 33690 ft | 432 kts | 124° |
| 2026-04-23 08:02 | 51.13286 | 2.00680 | 33774 ft | 437 kts | 108° |
| 2026-04-23 08:02 | 51.12743 | 2.05392 | 34211 ft | 432 kts | 92° |
| 2026-04-23 08:03 | 51.12554 | 2.10181 | 34492 ft | 435 kts | 95° |
| 2026-04-23 08:03 | 51.12285 | 2.14985 | 34786 ft | 436 kts | 95° |
| 2026-04-23 08:03 | 51.12023 | 2.19786 | 35111 ft | 436 kts | 95° |
| 2026-04-23 08:03 | 51.11760 | 2.24593 | 35438 ft | 436 kts | 95° |
| 2026-04-23 08:04 | 51.11497 | 2.29381 | 35755 ft | 436 kts | 95° |
| 2026-04-23 08:04 | 51.11232 | 2.34183 | 36070 ft | 435 kts | 95° |
| 2026-04-23 08:04 | 51.10968 | 2.38977 | 36389 ft | 435 kts | 95° |
| 2026-04-23 08:04 | 51.10702 | 2.43758 | 36757 ft | 433 kts | 95° |
| 2026-04-23 08:05 | 51.10430 | 2.48522 | 37124 ft | 431 kts | 95° |
| 2026-04-23 08:05 | 51.10158 | 2.53271 | 37397 ft | 431 kts | 95° |
| 2026-04-23 08:05 | 51.09886 | 2.58022 | 37659 ft | 432 kts | 95° |
| 2026-04-23 08:05 | 51.09612 | 2.62777 | 37923 ft | 432 kts | 95° |
| 2026-04-23 08:06 | 51.09062 | 2.67447 | 38174 ft | 431 kts | 107° |
| 2026-04-23 08:06 | 51.08210 | 2.72025 | 38410 ft | 432 kts | 105° |
| 2026-04-23 08:06 | 51.07395 | 2.76630 | 38611 ft | 433 kts | 105° |
| 2026-04-23 08:06 | 51.06568 | 2.81225 | 38844 ft | 433 kts | 105° |
| 2026-04-23 08:07 | 51.05736 | 2.85829 | 39075 ft | 433 kts | 106° |
| 2026-04-23 08:07 | 51.04920 | 2.90413 | 39340 ft | 431 kts | 106° |
| 2026-04-23 08:07 | 51.04072 | 2.94983 | 39454 ft | 431 kts | 106° |
| 2026-04-23 08:08 | 51.02391 | 3.04115 | 39452 ft | 429 kts | 106° |
| 2026-04-23 08:08 | 51.00716 | 3.13205 | 39451 ft | 430 kts | 106° |
| 2026-04-23 08:09 | 50.99032 | 3.22305 | 39454 ft | 430 kts | 106° |
| 2026-04-23 08:09 | 50.97341 | 3.31396 | 39454 ft | 429 kts | 107° |
| 2026-04-23 08:10 | 50.95644 | 3.40440 | 39450 ft | 426 kts | 107° |
| 2026-04-23 08:10 | 50.93113 | 3.53924 | 39446 ft | 426 kts | 107° |
| 2026-04-23 08:11 | 50.91411 | 3.62925 | 39446 ft | 426 kts | 107° |
| 2026-04-23 08:11 | 50.89684 | 3.71898 | 39447 ft | 426 kts | 107° |
| 2026-04-23 08:12 | 50.87964 | 3.80806 | 39436 ft | 425 kts | 108° |
| 2026-04-23 08:12 | 50.86226 | 3.89776 | 39418 ft | 423 kts | 108° |
| 2026-04-23 08:13 | 50.84504 | 3.98617 | 39449 ft | 424 kts | 108° |
| 2026-04-23 08:13 | 50.82763 | 4.07510 | 39445 ft | 423 kts | 108° |
| 2026-04-23 08:14 | 50.81016 | 4.16398 | 39447 ft | 423 kts | 108° |
| 2026-04-23 08:14 | 50.79262 | 4.25284 | 39450 ft | 425 kts | 108° |
| 2026-04-23 08:15 | 50.77482 | 4.34255 | 39451 ft | 426 kts | 108° |
| 2026-04-23 08:15 | 50.75717 | 4.43108 | 39451 ft | 426 kts | 108° |
| 2026-04-23 08:16 | 50.73934 | 4.52018 | 39450 ft | 426 kts | 108° |
| 2026-04-23 08:16 | 50.72162 | 4.60927 | 39447 ft | 426 kts | 107° |
| 2026-04-23 08:17 | 50.70434 | 4.69855 | 39437 ft | 425 kts | 108° |
| 2026-04-23 08:17 | 50.68708 | 4.78714 | 39434 ft | 421 kts | 108° |
| 2026-04-23 08:18 | 50.66980 | 4.87540 | 39437 ft | 421 kts | 108° |
| 2026-04-23 08:18 | 50.65203 | 4.96313 | 39435 ft | 421 kts | 108° |
| 2026-04-23 08:19 | 50.63400 | 5.05102 | 39433 ft | 421 kts | 108° |
| 2026-04-23 08:19 | 50.61595 | 5.13873 | 39428 ft | 421 kts | 109° |
| 2026-04-23 08:20 | 50.59794 | 5.22584 | 39427 ft | 416 kts | 109° |
| 2026-04-23 08:20 | 50.57997 | 5.31242 | 39433 ft | 417 kts | 109° |
| 2026-04-23 08:21 | 50.56194 | 5.39894 | 39422 ft | 416 kts | 109° |
| 2026-04-23 08:21 | 50.54383 | 5.48539 | 39423 ft | 416 kts | 109° |
| 2026-04-23 08:22 | 50.52567 | 5.57181 | 39419 ft | 416 kts | 109° |
| 2026-04-23 08:22 | 50.51051 | 5.65897 | 39438 ft | 411 kts | 103° |
| 2026-04-23 08:23 | 50.49895 | 5.74718 | 39409 ft | 415 kts | 102° |
| 2026-04-23 08:23 | 50.48741 | 5.83594 | 39400 ft | 415 kts | 102° |
| 2026-04-23 08:24 | 50.47584 | 5.92459 | 39396 ft | 414 kts | 102° |
| 2026-04-23 08:24 | 50.46421 | 6.01321 | 39395 ft | 415 kts | 102° |
| 2026-04-23 08:25 | 50.45263 | 6.10084 | 39397 ft | 410 kts | 102° |
| 2026-04-23 08:25 | 50.44102 | 6.18822 | 39395 ft | 409 kts | 102° |
| 2026-04-23 08:26 | 50.42933 | 6.27562 | 39391 ft | 409 kts | 102° |
| 2026-04-23 08:26 | 50.41759 | 6.36288 | 39381 ft | 409 kts | 103° |
| 2026-04-23 08:27 | 50.40559 | 6.45015 | 39379 ft | 409 kts | 103° |
| 2026-04-23 08:27 | 50.39361 | 6.53706 | 39379 ft | 407 kts | 102° |
| 2026-04-23 08:28 | 50.38159 | 6.62361 | 39380 ft | 406 kts | 102° |
| 2026-04-23 08:28 | 50.36951 | 6.71010 | 39389 ft | 406 kts | 102° |
| 2026-04-23 08:29 | 50.35739 | 6.79642 | 39390 ft | 406 kts | 103° |
| 2026-04-23 08:29 | 50.34728 | 6.86811 | 39393 ft | 406 kts | 103° |
| 2026-04-23 08:30 | 50.33503 | 6.95439 | 39394 ft | 406 kts | 102° |
| 2026-04-23 08:30 | 50.32276 | 7.04040 | 39396 ft | 405 kts | 102° |
| 2026-04-23 08:31 | 50.31042 | 7.12636 | 39399 ft | 405 kts | 102° |
| 2026-04-23 08:31 | 50.29803 | 7.21218 | 39398 ft | 405 kts | 103° |
| 2026-04-23 08:32 | 50.28560 | 7.29781 | 39400 ft | 405 kts | 103° |
| 2026-04-23 08:32 | 50.27310 | 7.38351 | 39391 ft | 405 kts | 102° |
| 2026-04-23 08:33 | 50.26051 | 7.46925 | 39397 ft | 405 kts | 102° |
| 2026-04-23 08:33 | 50.24787 | 7.55507 | 39396 ft | 405 kts | 102° |
| 2026-04-23 08:34 | 50.23517 | 7.64073 | 39394 ft | 405 kts | 103° |
| 2026-04-23 08:34 | 50.22242 | 7.72634 | 39394 ft | 405 kts | 103° |
| 2026-04-23 08:35 | 50.20960 | 7.81204 | 39397 ft | 405 kts | 103° |
| 2026-04-23 08:35 | 50.19672 | 7.89765 | 39397 ft | 405 kts | 103° |
| 2026-04-23 08:36 | 50.18382 | 7.98291 | 39399 ft | 406 kts | 103° |
| 2026-04-23 08:36 | 50.17081 | 8.06848 | 39403 ft | 406 kts | 103° |
| 2026-04-23 08:37 | 50.15781 | 8.15351 | 39404 ft | 406 kts | 103° |
| 2026-04-23 08:37 | 50.14456 | 8.23972 | 39399 ft | 406 kts | 103° |
| 2026-04-23 08:38 | 50.13143 | 8.32469 | 39406 ft | 407 kts | 103° |
| 2026-04-23 08:38 | 50.11812 | 8.41040 | 39406 ft | 408 kts | 103° |
| 2026-04-23 08:39 | 50.10474 | 8.49607 | 39403 ft | 407 kts | 103° |
| 2026-04-23 08:39 | 50.09133 | 8.58152 | 39400 ft | 406 kts | 103° |
| 2026-04-23 08:40 | 50.07785 | 8.66696 | 39401 ft | 406 kts | 103° |
| 2026-04-23 08:40 | 50.06434 | 8.75227 | 39400 ft | 406 kts | 103° |
| 2026-04-23 08:41 | 50.04548 | 8.83489 | 39414 ft | 407 kts | 114° |
| 2026-04-23 08:41 | 50.02110 | 8.91462 | 39392 ft | 408 kts | 114° |
| 2026-04-23 08:42 | 49.99642 | 8.99414 | 39385 ft | 409 kts | 114° |
| 2026-04-23 08:42 | 49.97161 | 9.07355 | 39383 ft | 409 kts | 114° |
| 2026-04-23 08:43 | 49.94674 | 9.15290 | 39372 ft | 409 kts | 114° |
| 2026-04-23 08:43 | 49.92176 | 9.23230 | 39373 ft | 410 kts | 114° |
| 2026-04-23 08:44 | 49.89673 | 9.31162 | 39369 ft | 409 kts | 114° |
| 2026-04-23 08:44 | 49.87166 | 9.39085 | 39368 ft | 409 kts | 114° |
| 2026-04-23 08:45 | 49.84657 | 9.46988 | 39366 ft | 410 kts | 114° |
| 2026-04-23 08:45 | 49.81803 | 9.54602 | 39348 ft | 412 kts | 131° |
| 2026-04-23 08:46 | 49.77684 | 9.60870 | 39350 ft | 417 kts | 132° |
| 2026-04-23 08:46 | 49.73495 | 9.67056 | 39360 ft | 417 kts | 133° |
| 2026-04-23 08:47 | 49.69262 | 9.73199 | 39361 ft | 417 kts | 133° |
| 2026-04-23 08:47 | 49.65058 | 9.79268 | 39365 ft | 417 kts | 133° |
| 2026-04-23 08:48 | 49.60820 | 9.85372 | 39368 ft | 417 kts | 133° |
| 2026-04-23 08:48 | 49.56578 | 9.91464 | 39376 ft | 417 kts | 133° |
| 2026-04-23 08:49 | 49.52322 | 9.97564 | 39386 ft | 419 kts | 133° |
| 2026-04-23 08:49 | 49.48062 | 10.03651 | 39373 ft | 418 kts | 133° |
| 2026-04-23 08:50 | 49.43794 | 10.09735 | 39374 ft | 418 kts | 133° |
| 2026-04-23 08:50 | 49.39523 | 10.15810 | 39374 ft | 419 kts | 133° |
| 2026-04-23 08:51 | 49.35247 | 10.21875 | 39376 ft | 418 kts | 133° |
| 2026-04-23 08:51 | 49.30971 | 10.27926 | 39374 ft | 419 kts | 133° |
| 2026-04-23 08:52 | 49.26687 | 10.33976 | 39387 ft | 420 kts | 133° |
| 2026-04-23 08:52 | 49.22440 | 10.40110 | 39381 ft | 419 kts | 131° |
| 2026-04-23 08:53 | 49.18256 | 10.46319 | 39383 ft | 419 kts | 132° |
| 2026-04-23 08:53 | 49.14060 | 10.52515 | 39397 ft | 419 kts | 132° |
| 2026-04-23 08:54 | 49.09883 | 10.58712 | 39391 ft | 419 kts | 132° |
| 2026-04-23 08:54 | 49.05696 | 10.64905 | 39398 ft | 420 kts | 132° |
| 2026-04-23 08:55 | 49.01534 | 10.71034 | 39384 ft | 421 kts | 132° |
| 2026-04-23 08:55 | 48.97343 | 10.77192 | 39381 ft | 421 kts | 132° |
| 2026-04-23 08:56 | 48.93133 | 10.83363 | 39381 ft | 421 kts | 132° |
| 2026-04-23 08:56 | 48.88912 | 10.89548 | 39376 ft | 421 kts | 132° |
| 2026-04-23 08:57 | 48.84721 | 10.95675 | 39367 ft | 421 kts | 132° |
| 2026-04-23 08:57 | 48.80498 | 11.01832 | 39375 ft | 422 kts | 132° |
| 2026-04-23 08:58 | 48.76257 | 11.07991 | 39379 ft | 423 kts | 132° |
| 2026-04-23 08:58 | 48.71995 | 11.14158 | 39381 ft | 424 kts | 132° |
| 2026-04-23 08:59 | 48.67731 | 11.20313 | 39370 ft | 424 kts | 132° |
| 2026-04-23 08:59 | 48.63627 | 11.26651 | 39350 ft | 418 kts | 122° |
| 2026-04-23 09:00 | 48.60141 | 11.33682 | 39352 ft | 419 kts | 123° |
| 2026-04-23 09:00 | 48.56634 | 11.40717 | 39364 ft | 419 kts | 123° |
| 2026-04-23 09:01 | 48.53124 | 11.47748 | 39369 ft | 420 kts | 123° |
| 2026-04-23 09:01 | 48.49604 | 11.54783 | 39370 ft | 420 kts | 123° |
| 2026-04-23 09:02 | 48.47633 | 11.58046 | 39350 ft | 426 kts | 137° |
| 2026-04-23 09:02 | 48.45101 | 11.60417 | 39365 ft | 434 kts | 152° |
| 2026-04-23 09:02 | 48.39230 | 11.63002 | 39369 ft | 444 kts | 161° |
| 2026-04-23 09:03 | 48.33220 | 11.65169 | 39372 ft | 444 kts | 162° |
| 2026-04-23 09:03 | 48.27357 | 11.67822 | 39355 ft | 433 kts | 144° |
| 2026-04-23 09:04 | 48.24990 | 11.70501 | 39377 ft | 423 kts | 130° |
| 2026-04-23 09:04 | 48.22967 | 11.73626 | 39366 ft | 425 kts | 129° |
| 2026-04-23 09:04 | 48.18985 | 11.80126 | 39365 ft | 424 kts | 128° |
| 2026-04-23 09:05 | 48.14695 | 11.86244 | 39372 ft | 427 kts | 133° |
| 2026-04-23 09:05 | 48.10322 | 11.92269 | 39354 ft | 427 kts | 133° |
| 2026-04-23 09:06 | 48.05953 | 11.98283 | 39352 ft | 427 kts | 133° |
| 2026-04-23 09:06 | 48.01581 | 12.04286 | 39354 ft | 428 kts | 133° |
| 2026-04-23 09:07 | 47.97188 | 12.10301 | 39338 ft | 429 kts | 133° |
| 2026-04-23 09:07 | 47.92731 | 12.16245 | 39337 ft | 431 kts | 135° |
| 2026-04-23 09:08 | 47.88144 | 12.22005 | 39338 ft | 431 kts | 135° |
| 2026-04-23 09:08 | 47.83578 | 12.27762 | 39336 ft | 431 kts | 135° |
| 2026-04-23 09:09 | 47.79004 | 12.33518 | 39310 ft | 431 kts | 135° |
| 2026-04-23 09:09 | 47.76721 | 12.36385 | 39119 ft | 427 kts | 135° |
| 2026-04-23 09:09 | 47.74459 | 12.39224 | 38883 ft | 424 kts | 135° |
| 2026-04-23 09:10 | 47.72212 | 12.42035 | 38611 ft | 421 kts | 135° |
| 2026-04-23 09:10 | 47.67737 | 12.47563 | 38059 ft | 413 kts | 135° |
| 2026-04-23 09:10 | 47.65552 | 12.50260 | 37778 ft | 404 kts | 135° |
| 2026-04-23 09:11 | 47.63414 | 12.52894 | 37440 ft | 398 kts | 135° |
| 2026-04-23 09:11 | 47.61094 | 12.55180 | 36783 ft | 406 kts | 146° |
| 2026-04-23 09:11 | 47.58627 | 12.57225 | 36181 ft | 406 kts | 144° |
| 2026-04-23 09:11 | 47.56179 | 12.59289 | 35712 ft | 404 kts | 144° |
| 2026-04-23 09:12 | 47.53744 | 12.61336 | 35311 ft | 400 kts | 144° |
| 2026-04-23 09:12 | 47.51333 | 12.63360 | 34880 ft | 397 kts | 144° |
| 2026-04-23 09:12 | 47.48931 | 12.65373 | 34420 ft | 396 kts | 144° |
| 2026-04-23 09:12 | 47.46542 | 12.67375 | 33904 ft | 394 kts | 144° |
| 2026-04-23 09:13 | 47.44162 | 12.69366 | 33373 ft | 392 kts | 144° |
| 2026-04-23 09:13 | 47.41809 | 12.71332 | 32974 ft | 387 kts | 144° |
| 2026-04-23 09:13 | 47.39475 | 12.73280 | 32570 ft | 384 kts | 144° |
| 2026-04-23 09:13 | 47.37158 | 12.75212 | 32103 ft | 381 kts | 143° |
| 2026-04-23 09:14 | 47.34865 | 12.77122 | 31706 ft | 377 kts | 143° |
| 2026-04-23 09:14 | 47.32593 | 12.79012 | 31341 ft | 373 kts | 143° |
| 2026-04-23 09:14 | 47.30341 | 12.80885 | 30941 ft | 371 kts | 143° |
| 2026-04-23 09:14 | 47.28094 | 12.82752 | 30521 ft | 370 kts | 143° |
| 2026-04-23 09:15 | 47.25853 | 12.84611 | 30066 ft | 368 kts | 144° |
| 2026-04-23 09:15 | 47.23629 | 12.86455 | 29643 ft | 366 kts | 143° |
| 2026-04-23 09:15 | 47.21427 | 12.88278 | 29257 ft | 363 kts | 143° |
| 2026-04-23 09:15 | 47.19238 | 12.90089 | 28877 ft | 360 kts | 143° |
| 2026-04-23 09:16 | 47.17067 | 12.91883 | 28522 ft | 356 kts | 143° |
| 2026-04-23 09:16 | 47.14942 | 12.93638 | 28137 ft | 354 kts | 144° |
| 2026-04-23 09:16 | 47.12799 | 12.95406 | 27769 ft | 353 kts | 143° |
| 2026-04-23 09:16 | 47.10662 | 12.97167 | 27414 ft | 352 kts | 144° |
| 2026-04-23 09:17 | 47.08527 | 12.98926 | 27043 ft | 351 kts | 144° |
| 2026-04-23 09:17 | 47.06398 | 13.00678 | 26675 ft | 350 kts | 144° |
| 2026-04-23 09:17 | 47.04283 | 13.02416 | 26344 ft | 348 kts | 144° |
| 2026-04-23 09:17 | 47.02171 | 13.04151 | 25984 ft | 347 kts | 144° |
| 2026-04-23 09:18 | 47.00750 | 13.05317 | 25721 ft | 347 kts | 144° |
| 2026-04-23 09:18 | 46.98656 | 13.07035 | 25394 ft | 344 kts | 144° |
| 2026-04-23 09:18 | 46.96572 | 13.08741 | 25038 ft | 343 kts | 144° |
| 2026-04-23 09:18 | 46.94496 | 13.10441 | 24700 ft | 341 kts | 144° |
| 2026-04-23 09:19 | 46.92430 | 13.12129 | 24365 ft | 340 kts | 144° |
| 2026-04-23 09:19 | 46.90368 | 13.13814 | 24040 ft | 340 kts | 145° |
| 2026-04-23 09:19 | 46.88295 | 13.15507 | 23636 ft | 341 kts | 145° |
| 2026-04-23 09:19 | 46.86230 | 13.17192 | 23270 ft | 339 kts | 144° |
| 2026-04-23 09:20 | 46.84199 | 13.18847 | 22932 ft | 339 kts | 145° |
| 2026-04-23 09:20 | 46.82135 | 13.20528 | 22571 ft | 339 kts | 145° |
| 2026-04-23 09:20 | 46.80080 | 13.22199 | 22262 ft | 339 kts | 145° |
| 2026-04-23 09:20 | 46.78019 | 13.23873 | 21892 ft | 340 kts | 145° |
| 2026-04-23 09:21 | 46.75956 | 13.25549 | 21542 ft | 340 kts | 145° |
| 2026-04-23 09:21 | 46.73891 | 13.27224 | 21227 ft | 339 kts | 145° |
| 2026-04-23 09:21 | 46.71829 | 13.28896 | 20854 ft | 339 kts | 145° |
| 2026-04-23 09:21 | 46.69778 | 13.30557 | 20559 ft | 337 kts | 146° |
| 2026-04-23 09:22 | 46.67726 | 13.32217 | 20218 ft | 337 kts | 146° |
| 2026-04-23 09:22 | 46.65676 | 13.33874 | 19873 ft | 338 kts | 146° |
| 2026-04-23 09:22 | 46.63618 | 13.35537 | 19555 ft | 339 kts | 146° |
| 2026-04-23 09:22 | 46.61557 | 13.37199 | 19214 ft | 340 kts | 146° |
| 2026-04-23 09:23 | 46.59483 | 13.38872 | 18893 ft | 341 kts | 146° |
| 2026-04-23 09:23 | 46.57402 | 13.40549 | 18528 ft | 344 kts | 146° |
| 2026-04-23 09:23 | 46.55310 | 13.42233 | 18149 ft | 346 kts | 146° |
| 2026-04-23 09:23 | 46.53203 | 13.43928 | 17801 ft | 345 kts | 145° |
| 2026-04-23 09:24 | 46.51105 | 13.45614 | 17438 ft | 346 kts | 146° |
| 2026-04-23 09:24 | 46.49003 | 13.47302 | 17101 ft | 345 kts | 145° |
| 2026-04-23 09:24 | 46.46900 | 13.48989 | 16762 ft | 346 kts | 146° |
| 2026-04-23 09:24 | 46.44791 | 13.50681 | 16411 ft | 347 kts | 146° |
| 2026-04-23 09:25 | 46.42635 | 13.52255 | 16013 ft | 353 kts | 156° |
| 2026-04-23 09:25 | 46.40174 | 13.52766 | 15608 ft | 364 kts | 181° |
| 2026-04-23 09:25 | 46.37682 | 13.52036 | 15276 ft | 368 kts | 192° |
| 2026-04-23 09:25 | 46.35211 | 13.51258 | 14808 ft | 370 kts | 188° |
| 2026-04-23 09:26 | 46.32690 | 13.50522 | 14435 ft | 368 kts | 189° |
| 2026-04-23 09:26 | 46.30193 | 13.49780 | 14106 ft | 366 kts | 189° |
| 2026-04-23 09:26 | 46.27698 | 13.49033 | 13695 ft | 366 kts | 189° |
| 2026-04-23 09:26 | 46.25208 | 13.48288 | 13282 ft | 365 kts | 189° |
| 2026-04-23 09:27 | 46.22718 | 13.47542 | 12925 ft | 365 kts | 189° |
| 2026-04-23 09:27 | 46.20226 | 13.46820 | 12488 ft | 367 kts | 189° |
| 2026-04-23 09:27 | 46.17715 | 13.46100 | 12105 ft | 368 kts | 189° |
| 2026-04-23 09:27 | 46.15204 | 13.45358 | 11727 ft | 369 kts | 193° |
| 2026-04-23 09:28 | 46.12862 | 13.43871 | 11300 ft | 371 kts | 214° |
| 2026-04-23 09:28 | 46.11018 | 13.41318 | 10947 ft | 367 kts | 236° |
| 2026-04-23 09:28 | 46.09683 | 13.38212 | 10666 ft | 361 kts | 242° |
| 2026-04-23 09:28 | 46.08454 | 13.35114 | 10464 ft | 352 kts | 242° |
| 2026-04-23 09:29 | 46.07257 | 13.32094 | 10301 ft | 343 kts | 242° |
| 2026-04-23 09:29 | 46.06089 | 13.29158 | 10135 ft | 333 kts | 242° |
| 2026-04-23 09:29 | 46.04955 | 13.26312 | 9978 ft | 323 kts | 242° |
| 2026-04-23 09:29 | 46.03850 | 13.23549 | 9833 ft | 313 kts | 242° |
| 2026-04-23 09:30 | 46.02778 | 13.20876 | 9713 ft | 304 kts | 242° |
| 2026-04-23 09:30 | 46.01736 | 13.18282 | 9578 ft | 295 kts | 242° |
| 2026-04-23 09:30 | 46.00715 | 13.15736 | 9257 ft | 293 kts | 242° |
| 2026-04-23 09:30 | 45.99710 | 13.13216 | 9041 ft | 286 kts | 242° |
| 2026-04-23 09:31 | 45.98727 | 13.10755 | 8442 ft | 285 kts | 242° |
| 2026-04-23 09:31 | 45.97744 | 13.08289 | 7940 ft | 282 kts | 242° |
| 2026-04-23 09:31 | 45.96780 | 13.05869 | 7487 ft | 277 kts | 242° |
| 2026-04-23 09:31 | 45.95834 | 13.03491 | 7001 ft | 273 kts | 242° |
| 2026-04-23 09:32 | 45.94901 | 13.01139 | 6534 ft | 268 kts | 242° |
| 2026-04-23 09:32 | 45.93776 | 12.99023 | 5977 ft | 268 kts | 221° |
| 2026-04-23 09:32 | 45.92128 | 12.97876 | 5572 ft | 264 kts | 192° |
| 2026-04-23 09:32 | 45.90312 | 12.97991 | 5350 ft | 264 kts | 163° |
| 2026-04-23 09:33 | 45.88744 | 12.99307 | 5093 ft | 263 kts | 135° |
| 2026-04-23 09:33 | 45.87592 | 13.01307 | 4862 ft | 255 kts | 126° |
| 2026-04-23 09:33 | 45.86590 | 13.03350 | 4586 ft | 246 kts | 124° |
| 2026-04-23 09:33 | 45.85703 | 13.05397 | 4281 ft | 239 kts | 117° |
| 2026-04-23 09:34 | 45.84997 | 13.07540 | 4026 ft | 237 kts | 114° |
| 2026-04-23 09:34 | 45.84318 | 13.09691 | 3767 ft | 236 kts | 114° |
| 2026-04-23 09:34 | 45.83643 | 13.11842 | 3493 ft | 236 kts | 113° |
| 2026-04-23 09:34 | 45.83166 | 13.14050 | 3210 ft | 233 kts | 101° |
| 2026-04-23 09:35 | 45.82984 | 13.16293 | 3105 ft | 220 kts | 92° |
| 2026-04-23 09:35 | 45.82942 | 13.18467 | 3043 ft | 214 kts | 90° |
| 2026-04-23 09:35 | 45.82925 | 13.20485 | 3031 ft | 192 kts | 90° |
| 2026-04-23 09:35 | 45.82913 | 13.22310 | 3021 ft | 178 kts | 90° |
| 2026-04-23 09:36 | 45.82896 | 13.24072 | 2957 ft | 178 kts | 90° |
| 2026-04-23 09:36 | 45.82891 | 13.25836 | 2683 ft | 175 kts | 90° |
| 2026-04-23 09:36 | 45.82889 | 13.27578 | 2462 ft | 175 kts | 90° |
| 2026-04-23 09:36 | 45.82878 | 13.29325 | 2183 ft | 174 kts | 91° |
| 2026-04-23 09:37 | 45.82868 | 13.31053 | 1989 ft | 173 kts | 90° |
| 2026-04-23 09:37 | 45.82859 | 13.32776 | 1751 ft | 172 kts | 91° |
| 2026-04-23 09:37 | 45.82850 | 13.34483 | 1503 ft | 169 kts | 91° |
| 2026-04-23 09:37 | 45.82841 | 13.36132 | 1325 ft | 160 kts | 91° |
| 2026-04-23 09:38 | 45.82836 | 13.37687 | 1100 ft | 153 kts | 91° |
| 2026-04-23 09:38 | 45.82822 | 13.39193 | 856 ft | 150 kts | 92° |
| 2026-04-23 09:38 | 45.82807 | 13.40685 | 680 ft | 150 kts | 90° |
| 2026-04-23 09:38 | 45.82814 | 13.42173 | 476 ft | 148 kts | 90° |
| 2026-04-23 09:39 | 45.82801 | 13.43629 | 266 ft | 144 kts | 91° |
| 2026-04-23 09:39 | 45.82794 | 13.45068 | 83 ft | 144 kts | 90° |
| 2026-04-23 09:39 | 45.82789 | 13.46384 | 47 ft | 116 kts | 90° |
| 2026-04-23 09:39 | 45.82783 | 13.47345 | 51 ft | 75 kts | 90° |
| 2026-04-23 09:40 | 45.82781 | 13.47878 | 48 ft | 36 kts | 90° |
| 2026-04-23 09:40 | 45.82779 | 13.48233 | 48 ft | 35 kts | 90° |
| 2026-04-23 09:40 | 45.82777 | 13.48473 | 48 ft | 13 kts | 91° |
| 2026-04-23 09:40 | 45.82759 | 13.48563 | 47 ft | 10 kts | 144° |
| 2026-04-23 09:41 | 45.82685 | 13.48575 | 49 ft | 12 kts | 179° |
| 2026-04-23 09:41 | 45.82598 | 13.48574 | 50 ft | 13 kts | 180° |
| 2026-04-23 09:41 | 45.82518 | 13.48573 | 50 ft | 11 kts | 180° |
| 2026-04-23 09:41 | 45.82442 | 13.48572 | 50 ft | 10 kts | 180° |
| 2026-04-23 09:42 | 45.82371 | 13.48572 | 50 ft | 7 kts | 180° |
| 2026-04-23 09:42 | 45.82327 | 13.48570 | 50 ft | 5 kts | 189° |
| 2026-04-23 09:42 | 45.82289 | 13.48572 | 47 ft | 5 kts | 155° |
| 2026-04-23 09:42 | 45.82260 | 13.48596 | 50 ft | 5 kts | 148° |
| 2026-04-23 09:43 | 45.82240 | 13.48614 | 50 ft | 2 kts | 148° |
| 2026-04-23 09:43 | 45.82236 | 13.48618 | 50 ft | 0 kts | 148° |